sensor_id;sensor_type;location;lat;lon;timestamp;P1;durP1;ratioP1;P2;durP2;ratioP2
63398;SDS011;49533;-34.520;150.798;2022-12-29T00:01:38;1.23;;;0.63;;
63398;SDS011;49533;-34.520;150.798;2022-12-29T00:04:05;1.40;;;0.75;;
63398;SDS011;49533;-34.520;150.798;2022-12-29T00:06:32;1.80;;;0.65;;
63398;SDS011;49533;-34.520;150.798;2022-12-29T00:08:59;1.13;;;0.63;;
63398;SDS011;49533;-34.520;150.798;2022-12-29T00:11:26;1.27;;;0.68;;
63398;SDS011;49533;-34.520;150.798;2022-12-29T00:13:54;1.35;;;0.75;;
63398;SDS011;49533;-34.520;150.798;2022-12-29T00:16:33;3.03;;;0.85;;
63398;SDS011;49533;-34.520;150.798;2022-12-29T00:19:01;1.90;;;0.93;;
63398;SDS011;49533;-34.520;150.798;2022-12-29T00:21:30;3.20;;;1.00;;
63398;SDS011;49533;-34.520;150.798;2022-12-29T00:24:18;2.85;;;1.13;;
63398;SDS011;49533;-34.520;150.798;2022-12-29T00:27:11;1.10;;;0.98;;
63398;SDS011;49533;-34.520;150.798;2022-12-29T00:29:50;2.15;;;0.90;;
63398;SDS011;49533;-34.520;150.798;2022-12-29T00:32:29;1.63;;;0.80;;
63398;SDS011;49533;-34.520;150.798;2022-12-29T00:35:09;2.83;;;1.30;;
63398;SDS011;49533;-34.520;150.798;2022-12-29T00:37:40;3.53;;;1.48;;
63398;SDS011;49533;-34.520;150.798;2022-12-29T00:40:23;4.35;;;1.30;;
63398;SDS011;49533;-34.520;150.798;2022-12-29T00:43:02;4.43;;;1.52;;
63398;SDS011;49533;-34.520;150.798;2022-12-29T00:45:41;5.25;;;1.77;;
63398;SDS011;49533;-34.520;150.798;2022-12-29T00:48:08;3.55;;;1.38;;
63398;SDS011;49533;-34.520;150.798;2022-12-29T00:50:35;3.65;;;1.40;;
63398;SDS011;49533;-34.520;150.798;2022-12-29T00:53:03;4.22;;;1.90;;
63398;SDS011;49533;-34.520;150.798;2022-12-29T00:55:30;3.45;;;1.60;;
63398;SDS011;49533;-34.520;150.798;2022-12-29T00:57:57;4.13;;;1.95;;
63398;SDS011;49533;-34.520;150.798;2022-12-29T01:00:24;6.75;;;1.63;;
63398;SDS011;49533;-34.520;150.798;2022-12-29T01:02:51;6.47;;;1.85;;
63398;SDS011;49533;-34.520;150.798;2022-12-29T01:05:18;3.88;;;1.70;;
63398;SDS011;49533;-34.520;150.798;2022-12-29T01:07:45;3.80;;;1.77;;
63398;SDS011;49533;-34.520;150.798;2022-12-29T01:10:12;3.55;;;2.00;;
63398;SDS011;49533;-34.520;150.798;2022-12-29T01:12:40;4.20;;;1.48;;
63398;SDS011;49533;-34.520;150.798;2022-12-29T01:15:08;2.20;;;1.58;;
63398;SDS011;49533;-34.520;150.798;2022-12-29T01:17:37;3.60;;;1.70;;
63398;SDS011;49533;-34.520;150.798;2022-12-29T01:20:04;3.08;;;1.30;;
63398;SDS011;49533;-34.520;150.798;2022-12-29T01:22:31;1.73;;;1.10;;
63398;SDS011;49533;-34.520;150.798;2022-12-29T01:24:59;2.33;;;0.95;;
63398;SDS011;49533;-34.520;150.798;2022-12-29T01:27:27;3.55;;;1.15;;
63398;SDS011;49533;-34.520;150.798;2022-12-29T01:29:54;3.00;;;1.23;;
63398;SDS011;49533;-34.520;150.798;2022-12-29T01:32:21;3.80;;;1.35;;
63398;SDS011;49533;-34.520;150.798;2022-12-29T01:34:48;3.92;;;1.42;;
63398;SDS011;49533;-34.520;150.798;2022-12-29T01:37:15;2.47;;;1.42;;
63398;SDS011;49533;-34.520;150.798;2022-12-29T01:39:42;2.53;;;1.17;;
63398;SDS011;49533;-34.520;150.798;2022-12-29T01:42:16;4.97;;;1.52;;
63398;SDS011;49533;-34.520;150.798;2022-12-29T01:44:54;1.95;;;1.10;;
63398;SDS011;49533;-34.520;150.798;2022-12-29T01:47:32;3.92;;;1.50;;
63398;SDS011;49533;-34.520;150.798;2022-12-29T01:50:06;10.85;;;1.92;;
63398;SDS011;49533;-34.520;150.798;2022-12-29T01:52:40;2.92;;;1.40;;
63398;SDS011;49533;-34.520;150.798;2022-12-29T01:55:16;4.60;;;1.15;;
63398;SDS011;49533;-34.520;150.798;2022-12-29T01:57:45;4.28;;;1.42;;
63398;SDS011;49533;-34.520;150.798;2022-12-29T02:00:16;5.13;;;1.33;;
63398;SDS011;49533;-34.520;150.798;2022-12-29T02:02:46;2.30;;;0.98;;
63398;SDS011;49533;-34.520;150.798;2022-12-29T02:08:15;2.50;;;1.38;;
63398;SDS011;49533;-34.520;150.798;2022-12-29T02:10:42;6.38;;;1.85;;
63398;SDS011;49533;-34.520;150.798;2022-12-29T02:13:11;2.42;;;1.10;;
63398;SDS011;49533;-34.520;150.798;2022-12-29T02:15:53;3.15;;;1.42;;
63398;SDS011;49533;-34.520;150.798;2022-12-29T02:18:51;4.03;;;1.63;;
63398;SDS011;49533;-34.520;150.798;2022-12-29T02:21:48;3.17;;;1.45;;
63398;SDS011;49533;-34.520;150.798;2022-12-29T02:24:35;1.48;;;1.05;;
63398;SDS011;49533;-34.520;150.798;2022-12-29T02:30:27;3.75;;;1.67;;
63398;SDS011;49533;-34.520;150.798;2022-12-29T02:33:13;4.15;;;1.40;;
63398;SDS011;49533;-34.520;150.798;2022-12-29T02:35:56;3.35;;;1.35;;
63398;SDS011;49533;-34.520;150.798;2022-12-29T02:38:42;2.78;;;1.25;;
63398;SDS011;49533;-34.520;150.798;2022-12-29T02:41:22;4.68;;;1.95;;
63398;SDS011;49533;-34.520;150.798;2022-12-29T02:44:09;4.13;;;1.77;;
63398;SDS011;49533;-34.520;150.798;2022-12-29T02:46:44;3.67;;;1.95;;
63398;SDS011;49533;-34.520;150.798;2022-12-29T02:49:21;5.03;;;1.70;;
63398;SDS011;49533;-34.520;150.798;2022-12-29T02:52:02;4.07;;;1.67;;
63398;SDS011;49533;-34.520;150.798;2022-12-29T02:54:37;2.95;;;1.52;;
63398;SDS011;49533;-34.520;150.798;2022-12-29T02:57:10;4.43;;;1.65;;
63398;SDS011;49533;-34.520;150.798;2022-12-29T03:00:00;3.38;;;1.58;;
63398;SDS011;49533;-34.520;150.798;2022-12-29T03:02:39;4.72;;;1.60;;
63398;SDS011;49533;-34.520;150.798;2022-12-29T03:05:32;3.05;;;1.63;;
63398;SDS011;49533;-34.520;150.798;2022-12-29T03:08:27;6.90;;;1.95;;
63398;SDS011;49533;-34.520;150.798;2022-12-29T03:11:08;5.60;;;1.90;;
63398;SDS011;49533;-34.520;150.798;2022-12-29T03:13:51;4.57;;;1.58;;
63398;SDS011;49533;-34.520;150.798;2022-12-29T03:16:40;4.35;;;2.05;;
63398;SDS011;49533;-34.520;150.798;2022-12-29T03:19:15;3.45;;;1.60;;
63398;SDS011;49533;-34.520;150.798;2022-12-29T03:21:49;5.25;;;1.92;;
63398;SDS011;49533;-34.520;150.798;2022-12-29T03:24:40;6.75;;;2.60;;
63398;SDS011;49533;-34.520;150.798;2022-12-29T03:27:13;10.30;;;3.45;;
63398;SDS011;49533;-34.520;150.798;2022-12-29T03:29:47;5.85;;;2.13;;
63398;SDS011;49533;-34.520;150.798;2022-12-29T03:32:19;3.35;;;1.80;;
63398;SDS011;49533;-34.520;150.798;2022-12-29T03:34:49;6.10;;;2.20;;
63398;SDS011;49533;-34.520;150.798;2022-12-29T03:37:18;7.07;;;2.33;;
63398;SDS011;49533;-34.520;150.798;2022-12-29T03:39:49;4.65;;;2.13;;
63398;SDS011;49533;-34.520;150.798;2022-12-29T03:42:18;5.38;;;2.00;;
63398;SDS011;49533;-34.520;150.798;2022-12-29T03:44:47;13.88;;;2.65;;
63398;SDS011;49533;-34.520;150.798;2022-12-29T03:47:19;19.73;;;2.92;;
63398;SDS011;49533;-34.520;150.798;2022-12-29T03:49:46;10.90;;;2.72;;
63398;SDS011;49533;-34.520;150.798;2022-12-29T03:52:13;5.20;;;2.15;;
63398;SDS011;49533;-34.520;150.798;2022-12-29T03:54:41;5.47;;;2.38;;
63398;SDS011;49533;-34.520;150.798;2022-12-29T03:57:08;6.95;;;2.17;;
63398;SDS011;49533;-34.520;150.798;2022-12-29T03:59:37;6.47;;;2.00;;
63398;SDS011;49533;-34.520;150.798;2022-12-29T04:02:04;12.65;;;2.40;;
63398;SDS011;49533;-34.520;150.798;2022-12-29T04:04:31;71.50;;;5.65;;
63398;SDS011;49533;-34.520;150.798;2022-12-29T04:06:58;16.77;;;4.45;;
63398;SDS011;49533;-34.520;150.798;2022-12-29T04:09:25;13.80;;;2.58;;
63398;SDS011;49533;-34.520;150.798;2022-12-29T04:11:53;9.57;;;2.20;;
63398;SDS011;49533;-34.520;150.798;2022-12-29T04:14:20;5.05;;;2.05;;
63398;SDS011;49533;-34.520;150.798;2022-12-29T04:16:47;11.70;;;2.42;;
63398;SDS011;49533;-34.520;150.798;2022-12-29T04:19:14;6.65;;;2.67;;
63398;SDS011;49533;-34.520;150.798;2022-12-29T04:21:41;4.47;;;1.65;;
63398;SDS011;49533;-34.520;150.798;2022-12-29T04:24:08;7.00;;;2.30;;
63398;SDS011;49533;-34.520;150.798;2022-12-29T04:26:35;6.45;;;1.70;;
63398;SDS011;49533;-34.520;150.798;2022-12-29T04:29:03;4.45;;;2.03;;
63398;SDS011;49533;-34.520;150.798;2022-12-29T04:31:30;5.40;;;1.80;;
63398;SDS011;49533;-34.520;150.798;2022-12-29T04:33:57;5.57;;;2.17;;
63398;SDS011;49533;-34.520;150.798;2022-12-29T04:36:25;3.83;;;1.65;;
63398;SDS011;49533;-34.520;150.798;2022-12-29T04:38:53;5.07;;;1.90;;
63398;SDS011;49533;-34.520;150.798;2022-12-29T04:41:20;1.63;;;1.50;;
63398;SDS011;49533;-34.520;150.798;2022-12-29T04:43:47;10.20;;;1.85;;
63398;SDS011;49533;-34.520;150.798;2022-12-29T04:46:14;10.88;;;2.72;;
63398;SDS011;49533;-34.520;150.798;2022-12-29T04:48:41;7.38;;;2.45;;
63398;SDS011;49533;-34.520;150.798;2022-12-29T04:51:08;5.40;;;1.70;;
63398;SDS011;49533;-34.520;150.798;2022-12-29T04:53:35;5.60;;;1.95;;
63398;SDS011;49533;-34.520;150.798;2022-12-29T04:56:02;3.17;;;1.33;;
63398;SDS011;49533;-34.520;150.798;2022-12-29T04:58:29;6.97;;;1.77;;
63398;SDS011;49533;-34.520;150.798;2022-12-29T05:00:57;3.33;;;1.48;;
63398;SDS011;49533;-34.520;150.798;2022-12-29T05:03:24;2.95;;;1.60;;
63398;SDS011;49533;-34.520;150.798;2022-12-29T05:05:53;3.17;;;1.50;;
63398;SDS011;49533;-34.520;150.798;2022-12-29T05:08:21;3.40;;;1.30;;
63398;SDS011;49533;-34.520;150.798;2022-12-29T05:10:50;3.75;;;1.45;;
63398;SDS011;49533;-34.520;150.798;2022-12-29T05:13:18;3.80;;;1.10;;
63398;SDS011;49533;-34.520;150.798;2022-12-29T05:15:50;7.00;;;1.90;;
63398;SDS011;49533;-34.520;150.798;2022-12-29T05:18:18;5.32;;;1.85;;
63398;SDS011;49533;-34.520;150.798;2022-12-29T05:20:46;4.88;;;1.70;;
63398;SDS011;49533;-34.520;150.798;2022-12-29T05:23:13;4.57;;;1.35;;
63398;SDS011;49533;-34.520;150.798;2022-12-29T05:25:41;5.90;;;1.45;;
63398;SDS011;49533;-34.520;150.798;2022-12-29T05:28:10;3.60;;;1.02;;
63398;SDS011;49533;-34.520;150.798;2022-12-29T05:30:37;6.95;;;1.70;;
63398;SDS011;49533;-34.520;150.798;2022-12-29T05:33:06;2.88;;;1.25;;
63398;SDS011;49533;-34.520;150.798;2022-12-29T05:35:33;5.57;;;1.50;;
63398;SDS011;49533;-34.520;150.798;2022-12-29T05:38:00;7.80;;;2.00;;
63398;SDS011;49533;-34.520;150.798;2022-12-29T05:40:27;2.08;;;1.45;;
63398;SDS011;49533;-34.520;150.798;2022-12-29T05:42:54;2.75;;;1.50;;
63398;SDS011;49533;-34.520;150.798;2022-12-29T05:45:21;4.43;;;1.58;;
63398;SDS011;49533;-34.520;150.798;2022-12-29T05:47:48;2.97;;;1.75;;
63398;SDS011;49533;-34.520;150.798;2022-12-29T05:50:15;4.18;;;1.63;;
63398;SDS011;49533;-34.520;150.798;2022-12-29T05:52:42;3.40;;;1.52;;
63398;SDS011;49533;-34.520;150.798;2022-12-29T05:55:09;4.30;;;1.63;;
63398;SDS011;49533;-34.520;150.798;2022-12-29T05:57:36;2.88;;;1.55;;
63398;SDS011;49533;-34.520;150.798;2022-12-29T06:00:04;2.67;;;1.45;;
63398;SDS011;49533;-34.520;150.798;2022-12-29T06:02:32;5.82;;;1.58;;
63398;SDS011;49533;-34.520;150.798;2022-12-29T06:05:01;2.80;;;1.48;;
63398;SDS011;49533;-34.520;150.798;2022-12-29T06:07:28;5.20;;;1.65;;
63398;SDS011;49533;-34.520;150.798;2022-12-29T06:09:55;1.77;;;1.15;;
63398;SDS011;49533;-34.520;150.798;2022-12-29T06:12:22;5.80;;;1.23;;
63398;SDS011;49533;-34.520;150.798;2022-12-29T06:14:49;3.53;;;1.30;;
63398;SDS011;49533;-34.520;150.798;2022-12-29T06:17:16;2.90;;;1.55;;
63398;SDS011;49533;-34.520;150.798;2022-12-29T06:19:43;3.72;;;1.55;;
63398;SDS011;49533;-34.520;150.798;2022-12-29T06:22:10;3.78;;;1.52;;
63398;SDS011;49533;-34.520;150.798;2022-12-29T06:24:37;4.47;;;1.50;;
63398;SDS011;49533;-34.520;150.798;2022-12-29T06:27:05;4.60;;;1.50;;
63398;SDS011;49533;-34.520;150.798;2022-12-29T06:29:32;2.67;;;1.80;;
63398;SDS011;49533;-34.520;150.798;2022-12-29T06:32:01;3.05;;;1.45;;
63398;SDS011;49533;-34.520;150.798;2022-12-29T06:34:29;3.08;;;1.50;;
63398;SDS011;49533;-34.520;150.798;2022-12-29T06:36:56;4.15;;;1.30;;
63398;SDS011;49533;-34.520;150.798;2022-12-29T06:39:23;2.30;;;1.42;;
63398;SDS011;49533;-34.520;150.798;2022-12-29T06:41:52;2.67;;;1.33;;
63398;SDS011;49533;-34.520;150.798;2022-12-29T06:44:20;2.47;;;1.58;;
63398;SDS011;49533;-34.520;150.798;2022-12-29T06:46:47;3.95;;;2.03;;
63398;SDS011;49533;-34.520;150.798;2022-12-29T06:49:15;2.70;;;1.95;;
63398;SDS011;49533;-34.520;150.798;2022-12-29T06:51:42;3.63;;;2.03;;
63398;SDS011;49533;-34.520;150.798;2022-12-29T06:54:09;6.40;;;2.50;;
63398;SDS011;49533;-34.520;150.798;2022-12-29T06:56:36;4.32;;;2.20;;
63398;SDS011;49533;-34.520;150.798;2022-12-29T06:59:03;1.98;;;1.67;;
63398;SDS011;49533;-34.520;150.798;2022-12-29T07:01:30;3.42;;;1.98;;
63398;SDS011;49533;-34.520;150.798;2022-12-29T07:03:57;3.85;;;2.92;;
63398;SDS011;49533;-34.520;150.798;2022-12-29T07:06:24;2.92;;;1.95;;
63398;SDS011;49533;-34.520;150.798;2022-12-29T07:08:53;4.75;;;1.95;;
63398;SDS011;49533;-34.520;150.798;2022-12-29T07:11:20;3.13;;;1.88;;
63398;SDS011;49533;-34.520;150.798;2022-12-29T07:13:48;6.97;;;2.65;;
63398;SDS011;49533;-34.520;150.798;2022-12-29T07:16:16;2.97;;;1.85;;
63398;SDS011;49533;-34.520;150.798;2022-12-29T07:18:43;3.40;;;2.17;;
63398;SDS011;49533;-34.520;150.798;2022-12-29T07:21:10;4.63;;;1.80;;
63398;SDS011;49533;-34.520;150.798;2022-12-29T07:23:37;4.68;;;2.05;;
63398;SDS011;49533;-34.520;150.798;2022-12-29T07:26:06;3.25;;;2.00;;
63398;SDS011;49533;-34.520;150.798;2022-12-29T07:28:35;6.05;;;2.00;;
63398;SDS011;49533;-34.520;150.798;2022-12-29T07:31:04;6.95;;;2.40;;
63398;SDS011;49533;-34.520;150.798;2022-12-29T07:33:32;4.05;;;2.17;;
63398;SDS011;49533;-34.520;150.798;2022-12-29T07:35:59;3.83;;;2.38;;
63398;SDS011;49533;-34.520;150.798;2022-12-29T07:38:26;4.60;;;2.17;;
63398;SDS011;49533;-34.520;150.798;2022-12-29T07:40:56;3.38;;;1.92;;
63398;SDS011;49533;-34.520;150.798;2022-12-29T07:43:24;5.03;;;2.38;;
63398;SDS011;49533;-34.520;150.798;2022-12-29T07:45:51;3.33;;;1.88;;
63398;SDS011;49533;-34.520;150.798;2022-12-29T07:48:19;4.97;;;1.80;;
63398;SDS011;49533;-34.520;150.798;2022-12-29T07:50:47;3.95;;;1.75;;
63398;SDS011;49533;-34.520;150.798;2022-12-29T07:53:15;3.67;;;1.85;;
63398;SDS011;49533;-34.520;150.798;2022-12-29T07:55:42;2.97;;;1.88;;
63398;SDS011;49533;-34.520;150.798;2022-12-29T07:58:09;2.80;;;1.67;;
63398;SDS011;49533;-34.520;150.798;2022-12-29T08:00:36;3.33;;;1.80;;
63398;SDS011;49533;-34.520;150.798;2022-12-29T08:03:04;4.88;;;1.63;;
63398;SDS011;49533;-34.520;150.798;2022-12-29T08:05:32;4.22;;;2.10;;
63398;SDS011;49533;-34.520;150.798;2022-12-29T08:08:00;3.80;;;1.75;;
63398;SDS011;49533;-34.520;150.798;2022-12-29T08:10:27;3.75;;;1.88;;
63398;SDS011;49533;-34.520;150.798;2022-12-29T08:12:55;2.83;;;2.05;;
63398;SDS011;49533;-34.520;150.798;2022-12-29T08:15:22;2.28;;;2.00;;
63398;SDS011;49533;-34.520;150.798;2022-12-29T08:17:49;5.28;;;2.13;;
63398;SDS011;49533;-34.520;150.798;2022-12-29T08:20:16;4.32;;;1.98;;
63398;SDS011;49533;-34.520;150.798;2022-12-29T08:22:43;3.20;;;1.70;;
63398;SDS011;49533;-34.520;150.798;2022-12-29T08:25:10;1.95;;;1.60;;
63398;SDS011;49533;-34.520;150.798;2022-12-29T08:27:37;9.48;;;2.45;;
63398;SDS011;49533;-34.520;150.798;2022-12-29T08:30:04;3.28;;;2.00;;
63398;SDS011;49533;-34.520;150.798;2022-12-29T08:32:32;3.88;;;1.75;;
63398;SDS011;49533;-34.520;150.798;2022-12-29T08:34:59;3.70;;;1.83;;
63398;SDS011;49533;-34.520;150.798;2022-12-29T08:37:26;5.03;;;2.35;;
63398;SDS011;49533;-34.520;150.798;2022-12-29T08:39:53;6.18;;;2.05;;
63398;SDS011;49533;-34.520;150.798;2022-12-29T08:42:20;3.72;;;2.08;;
63398;SDS011;49533;-34.520;150.798;2022-12-29T08:44:48;3.35;;;1.88;;
63398;SDS011;49533;-34.520;150.798;2022-12-29T08:47:15;2.10;;;1.85;;
63398;SDS011;49533;-34.520;150.798;2022-12-29T08:49:42;4.68;;;2.30;;
63398;SDS011;49533;-34.520;150.798;2022-12-29T08:52:09;4.43;;;2.05;;
63398;SDS011;49533;-34.520;150.798;2022-12-29T08:54:36;3.25;;;2.33;;
63398;SDS011;49533;-34.520;150.798;2022-12-29T08:57:03;3.00;;;2.15;;
63398;SDS011;49533;-34.520;150.798;2022-12-29T08:59:30;3.67;;;1.88;;
63398;SDS011;49533;-34.520;150.798;2022-12-29T09:01:57;4.80;;;1.70;;
63398;SDS011;49533;-34.520;150.798;2022-12-29T09:04:25;2.92;;;2.00;;
63398;SDS011;49533;-34.520;150.798;2022-12-29T09:06:52;3.40;;;1.92;;
63398;SDS011;49533;-34.520;150.798;2022-12-29T09:09:20;5.70;;;2.22;;
63398;SDS011;49533;-34.520;150.798;2022-12-29T09:11:47;4.50;;;2.60;;
63398;SDS011;49533;-34.520;150.798;2022-12-29T09:14:14;3.67;;;2.17;;
63398;SDS011;49533;-34.520;150.798;2022-12-29T09:16:42;1.98;;;1.77;;
63398;SDS011;49533;-34.520;150.798;2022-12-29T09:19:21;3.47;;;2.05;;
63398;SDS011;49533;-34.520;150.798;2022-12-29T09:21:48;4.75;;;2.15;;
63398;SDS011;49533;-34.520;150.798;2022-12-29T09:24:15;2.97;;;1.83;;
63398;SDS011;49533;-34.520;150.798;2022-12-29T09:26:42;2.80;;;2.42;;
63398;SDS011;49533;-34.520;150.798;2022-12-29T09:29:09;4.90;;;2.33;;
63398;SDS011;49533;-34.520;150.798;2022-12-29T09:31:36;2.50;;;2.30;;
63398;SDS011;49533;-34.520;150.798;2022-12-29T09:34:03;2.88;;;1.90;;
63398;SDS011;49533;-34.520;150.798;2022-12-29T09:36:30;2.75;;;2.35;;
63398;SDS011;49533;-34.520;150.798;2022-12-29T09:38:57;3.58;;;1.92;;
63398;SDS011;49533;-34.520;150.798;2022-12-29T09:41:29;4.30;;;2.75;;
63398;SDS011;49533;-34.520;150.798;2022-12-29T09:44:12;3.65;;;2.58;;
63398;SDS011;49533;-34.520;150.798;2022-12-29T09:46:49;4.07;;;2.60;;
63398;SDS011;49533;-34.520;150.798;2022-12-29T09:49:25;3.97;;;2.17;;
63398;SDS011;49533;-34.520;150.798;2022-12-29T09:52:00;2.55;;;2.35;;
63398;SDS011;49533;-34.520;150.798;2022-12-29T09:54:38;3.22;;;2.80;;
63398;SDS011;49533;-34.520;150.798;2022-12-29T09:57:20;3.97;;;2.60;;
63398;SDS011;49533;-34.520;150.798;2022-12-29T09:59:55;2.80;;;2.55;;
63398;SDS011;49533;-34.520;150.798;2022-12-29T10:02:32;4.93;;;2.70;;
63398;SDS011;49533;-34.520;150.798;2022-12-29T10:05:08;3.08;;;2.78;;
63398;SDS011;49533;-34.520;150.798;2022-12-29T10:07:49;3.10;;;2.70;;
63398;SDS011;49533;-34.520;150.798;2022-12-29T10:10:35;4.18;;;2.70;;
63398;SDS011;49533;-34.520;150.798;2022-12-29T10:13:25;2.45;;;2.28;;
63398;SDS011;49533;-34.520;150.798;2022-12-29T10:19:07;3.20;;;2.90;;
63398;SDS011;49533;-34.520;150.798;2022-12-29T10:21:57;3.03;;;2.65;;
63398;SDS011;49533;-34.520;150.798;2022-12-29T10:24:37;3.93;;;3.10;;
63398;SDS011;49533;-34.520;150.798;2022-12-29T10:27:07;3.00;;;2.78;;
63398;SDS011;49533;-34.520;150.798;2022-12-29T10:29:44;4.63;;;3.08;;
63398;SDS011;49533;-34.520;150.798;2022-12-29T10:32:21;3.47;;;2.97;;
63398;SDS011;49533;-34.520;150.798;2022-12-29T10:34:58;4.70;;;2.97;;
63398;SDS011;49533;-34.520;150.798;2022-12-29T10:37:40;4.40;;;2.78;;
63398;SDS011;49533;-34.520;150.798;2022-12-29T10:40:19;2.80;;;2.60;;
63398;SDS011;49533;-34.520;150.798;2022-12-29T10:42:54;3.35;;;3.05;;
63398;SDS011;49533;-34.520;150.798;2022-12-29T10:45:24;3.65;;;3.10;;
63398;SDS011;49533;-34.520;150.798;2022-12-29T10:48:00;3.00;;;2.80;;
63398;SDS011;49533;-34.520;150.798;2022-12-29T10:50:32;4.05;;;2.85;;
63398;SDS011;49533;-34.520;150.798;2022-12-29T10:53:00;3.45;;;3.13;;
63398;SDS011;49533;-34.520;150.798;2022-12-29T10:55:32;2.95;;;2.60;;
63398;SDS011;49533;-34.520;150.798;2022-12-29T10:58:04;4.25;;;3.28;;
63398;SDS011;49533;-34.520;150.798;2022-12-29T11:00:33;3.55;;;3.22;;
63398;SDS011;49533;-34.520;150.798;2022-12-29T11:03:08;3.80;;;3.00;;
63398;SDS011;49533;-34.520;150.798;2022-12-29T11:05:52;3.20;;;3.00;;
63398;SDS011;49533;-34.520;150.798;2022-12-29T11:08:25;5.15;;;3.17;;
63398;SDS011;49533;-34.520;150.798;2022-12-29T11:10:58;2.95;;;2.75;;
63398;SDS011;49533;-34.520;150.798;2022-12-29T11:13:31;3.78;;;2.70;;
63398;SDS011;49533;-34.520;150.798;2022-12-29T11:16:00;3.15;;;2.65;;
63398;SDS011;49533;-34.520;150.798;2022-12-29T11:18:32;3.33;;;2.92;;
63398;SDS011;49533;-34.520;150.798;2022-12-29T11:21:04;2.60;;;2.40;;
63398;SDS011;49533;-34.520;150.798;2022-12-29T11:23:36;3.70;;;2.40;;
63398;SDS011;49533;-34.520;150.798;2022-12-29T11:26:07;2.97;;;2.70;;
63398;SDS011;49533;-34.520;150.798;2022-12-29T11:28:47;3.10;;;2.80;;
63398;SDS011;49533;-34.520;150.798;2022-12-29T11:31:26;2.78;;;2.58;;
63398;SDS011;49533;-34.520;150.798;2022-12-29T11:33:53;2.60;;;2.40;;
63398;SDS011;49533;-34.520;150.798;2022-12-29T11:36:21;2.28;;;2.10;;
63398;SDS011;49533;-34.520;150.798;2022-12-29T11:38:50;2.83;;;2.42;;
63398;SDS011;49533;-34.520;150.798;2022-12-29T11:41:21;2.38;;;2.28;;
63398;SDS011;49533;-34.520;150.798;2022-12-29T11:43:50;2.50;;;2.30;;
63398;SDS011;49533;-34.520;150.798;2022-12-29T11:46:20;2.35;;;2.03;;
63398;SDS011;49533;-34.520;150.798;2022-12-29T11:48:50;2.50;;;2.30;;
63398;SDS011;49533;-34.520;150.798;2022-12-29T11:51:22;2.35;;;2.15;;
63398;SDS011;49533;-34.520;150.798;2022-12-29T11:53:54;4.18;;;2.85;;
63398;SDS011;49533;-34.520;150.798;2022-12-29T11:56:36;2.78;;;2.42;;
63398;SDS011;49533;-34.520;150.798;2022-12-29T12:02:22;2.40;;;2.20;;
63398;SDS011;49533;-34.520;150.798;2022-12-29T12:05:05;3.28;;;2.30;;
63398;SDS011;49533;-34.520;150.798;2022-12-29T12:07:41;3.35;;;2.45;;
63398;SDS011;49533;-34.520;150.798;2022-12-29T12:10:18;2.50;;;2.13;;
63398;SDS011;49533;-34.520;150.798;2022-12-29T12:12:52;2.70;;;2.50;;
63398;SDS011;49533;-34.520;150.798;2022-12-29T12:15:30;4.13;;;2.83;;
63398;SDS011;49533;-34.520;150.798;2022-12-29T12:18:08;3.08;;;2.78;;
63398;SDS011;49533;-34.520;150.798;2022-12-29T12:20:45;2.67;;;2.47;;
63398;SDS011;49533;-34.520;150.798;2022-12-29T12:23:34;3.25;;;2.95;;
63398;SDS011;49533;-34.520;150.798;2022-12-29T12:26:11;3.15;;;2.65;;
63398;SDS011;49533;-34.520;150.798;2022-12-29T12:28:53;2.60;;;2.47;;
63398;SDS011;49533;-34.520;150.798;2022-12-29T12:31:36;2.85;;;2.53;;
63398;SDS011;49533;-34.520;150.798;2022-12-29T12:34:31;3.55;;;2.88;;
63398;SDS011;49533;-34.520;150.798;2022-12-29T12:37:16;3.50;;;2.72;;
63398;SDS011;49533;-34.520;150.798;2022-12-29T12:40:15;3.20;;;2.90;;
63398;SDS011;49533;-34.520;150.798;2022-12-29T12:43:09;3.08;;;2.78;;
63398;SDS011;49533;-34.520;150.798;2022-12-29T12:51:49;3.25;;;2.95;;
63398;SDS011;49533;-34.520;150.798;2022-12-29T12:54:38;2.92;;;2.72;;
63398;SDS011;49533;-34.520;150.798;2022-12-29T12:57:36;3.42;;;2.88;;
63398;SDS011;49533;-34.520;150.798;2022-12-29T13:00:26;3.33;;;3.03;;
63398;SDS011;49533;-34.520;150.798;2022-12-29T13:03:05;3.40;;;2.85;;
63398;SDS011;49533;-34.520;150.798;2022-12-29T13:05:50;4.63;;;3.05;;
63398;SDS011;49533;-34.520;150.798;2022-12-29T13:08:44;3.60;;;3.00;;
63398;SDS011;49533;-34.520;150.798;2022-12-29T13:11:35;3.03;;;2.83;;
63398;SDS011;49533;-34.520;150.798;2022-12-29T13:14:25;3.10;;;2.80;;
63398;SDS011;49533;-34.520;150.798;2022-12-29T13:17:09;3.80;;;3.08;;
63398;SDS011;49533;-34.520;150.798;2022-12-29T13:19:55;4.65;;;3.03;;
63398;SDS011;49533;-34.520;150.798;2022-12-29T13:22:45;3.13;;;2.92;;
63398;SDS011;49533;-34.520;150.798;2022-12-29T13:25:31;10.02;;;3.10;;
63398;SDS011;49533;-34.520;150.798;2022-12-29T13:28:14;2.75;;;2.55;;
63398;SDS011;49533;-34.520;150.798;2022-12-29T13:31:12;3.03;;;2.72;;
63398;SDS011;49533;-34.520;150.798;2022-12-29T13:33:57;2.95;;;2.75;;
63398;SDS011;49533;-34.520;150.798;2022-12-29T13:36:43;2.80;;;2.60;;
63398;SDS011;49533;-34.520;150.798;2022-12-29T13:39:17;3.00;;;2.70;;
63398;SDS011;49533;-34.520;150.798;2022-12-29T13:41:50;3.50;;;2.80;;
63398;SDS011;49533;-34.520;150.798;2022-12-29T13:44:22;3.25;;;3.00;;
63398;SDS011;49533;-34.520;150.798;2022-12-29T13:46:54;3.00;;;2.70;;
63398;SDS011;49533;-34.520;150.798;2022-12-29T13:49:24;2.72;;;2.45;;
63398;SDS011;49533;-34.520;150.798;2022-12-29T13:51:55;2.83;;;2.63;;
63398;SDS011;49533;-34.520;150.798;2022-12-29T13:54:40;2.47;;;2.33;;
63398;SDS011;49533;-34.520;150.798;2022-12-29T14:00:18;2.85;;;2.58;;
63398;SDS011;49533;-34.520;150.798;2022-12-29T14:05:47;3.25;;;3.00;;
63398;SDS011;49533;-34.520;150.798;2022-12-29T14:08:40;3.20;;;2.90;;
63398;SDS011;49533;-34.520;150.798;2022-12-29T14:11:10;3.63;;;2.67;;
63398;SDS011;49533;-34.520;150.798;2022-12-29T14:13:40;3.35;;;2.78;;
63398;SDS011;49533;-34.520;150.798;2022-12-29T14:16:23;3.50;;;2.58;;
63398;SDS011;49533;-34.520;150.798;2022-12-29T14:18:55;2.80;;;2.60;;
63398;SDS011;49533;-34.520;150.798;2022-12-29T14:21:30;2.80;;;2.60;;
63398;SDS011;49533;-34.520;150.798;2022-12-29T14:26:56;3.17;;;2.97;;
63398;SDS011;49533;-34.520;150.798;2022-12-29T14:33:00;3.40;;;2.88;;
63398;SDS011;49533;-34.520;150.798;2022-12-29T14:38:04;3.40;;;2.80;;
63398;SDS011;49533;-34.520;150.798;2022-12-29T14:40:41;3.35;;;2.92;;
63398;SDS011;49533;-34.520;150.798;2022-12-29T14:43:12;3.25;;;2.95;;
63398;SDS011;49533;-34.520;150.798;2022-12-29T14:45:48;4.00;;;2.70;;
63398;SDS011;49533;-34.520;150.798;2022-12-29T14:48:31;2.92;;;2.70;;
63398;SDS011;49533;-34.520;150.798;2022-12-29T14:51:06;3.40;;;3.10;;
63398;SDS011;49533;-34.520;150.798;2022-12-29T14:53:53;3.88;;;3.45;;
63398;SDS011;49533;-34.520;150.798;2022-12-29T14:56:24;3.67;;;3.20;;
63398;SDS011;49533;-34.520;150.798;2022-12-29T14:59:00;3.20;;;2.90;;
63398;SDS011;49533;-34.520;150.798;2022-12-29T15:01:39;4.50;;;3.53;;
63398;SDS011;49533;-34.520;150.798;2022-12-29T15:04:17;3.33;;;2.90;;
63398;SDS011;49533;-34.520;150.798;2022-12-29T15:06:45;4.38;;;2.70;;
63398;SDS011;49533;-34.520;150.798;2022-12-29T15:11:57;3.65;;;3.35;;
63398;SDS011;49533;-34.520;150.798;2022-12-29T15:14:39;3.20;;;2.90;;
63398;SDS011;49533;-34.520;150.798;2022-12-29T15:17:24;4.70;;;3.35;;